createdAt,value
2023-04-09T00:03:28.952Z,27.02
2023-04-09T00:08:34.353Z,29.70
2023-04-09T00:13:42.164Z,29.38
2023-04-09T00:18:47.571Z,31.95
2023-04-09T00:23:52.811Z,32.70
2023-04-09T00:29:00.920Z,30.95
2023-04-09T00:34:06.101Z,29.88
2023-04-09T00:39:11.320Z,29.83
2023-04-09T00:44:19.233Z,25.30
2023-04-09T00:49:25.150Z,24.70
2023-04-09T00:54:31.007Z,23.80
2023-04-09T00:59:38.744Z,26.67
2023-04-09T01:04:45.718Z,24.90
2023-04-09T01:09:55.836Z,26.70
2023-04-09T01:15:10.730Z,25.27
2023-04-09T01:20:19.569Z,25.83
2023-04-09T01:25:36.035Z,24.40
2023-04-09T01:30:44.180Z,27.40
2023-04-09T01:35:50.901Z,24.98
2023-04-09T01:40:56.765Z,23.73
2023-04-09T01:46:05.323Z,22.45
2023-04-09T01:51:10.619Z,23.83
2023-04-09T01:56:15.817Z,21.45
2023-04-09T02:01:28.109Z,22.42
2023-04-09T02:06:40.263Z,23.23
2023-04-09T02:11:46.210Z,27.05
2023-04-09T02:16:53.979Z,23.83
2023-04-09T02:21:59.064Z,26.02
2023-04-09T02:27:05.154Z,27.58
2023-04-09T02:32:13.005Z,26.50
2023-04-09T02:37:18.598Z,26.67
2023-04-09T02:42:23.809Z,25.50
2023-04-09T02:47:31.862Z,25.00
2023-04-09T02:52:36.998Z,25.27
2023-04-09T02:57:42.223Z,25.60
2023-04-09T03:02:50.209Z,26.88
2023-04-09T03:07:55.543Z,25.73
2023-04-09T03:13:00.702Z,25.30
2023-04-09T03:18:08.549Z,24.45
2023-04-09T03:23:14.234Z,25.33
2023-04-09T03:28:19.387Z,25.85
2023-04-09T03:33:27.349Z,24.05
2023-04-09T03:38:33.337Z,26.83
2023-04-09T03:43:38.590Z,25.17
2023-04-09T03:48:46.605Z,25.23
2023-04-09T03:53:51.835Z,26.20
2023-04-09T03:58:56.889Z,25.77
2023-04-09T04:04:04.648Z,28.17
2023-04-09T04:09:10.033Z,26.30
2023-04-09T04:14:15.249Z,26.52
2023-04-09T04:19:23.010Z,28.08
2023-04-09T04:24:28.322Z,29.60
2023-04-09T04:29:33.478Z,29.98
2023-04-09T04:34:41.308Z,26.73
2023-04-09T04:39:46.343Z,27.33
2023-04-09T04:44:51.518Z,26.20
2023-04-09T04:49:59.315Z,27.55
2023-04-09T04:55:04.469Z,26.67
2023-04-09T05:00:11.259Z,25.08
2023-04-09T05:05:18.958Z,24.35
2023-04-09T05:10:24.108Z,25.23
2023-04-09T05:15:29.397Z,22.33
2023-04-09T05:20:37.350Z,21.80
2023-04-09T05:25:42.567Z,21.40
2023-04-09T05:30:49.791Z,22.02
2023-04-09T05:35:57.800Z,23.95
2023-04-09T05:41:03.394Z,23.27
2023-04-09T05:46:09.230Z,22.15
2023-04-09T05:51:16.905Z,22.52
2023-04-09T05:56:23.029Z,22.25
2023-04-09T06:01:28.199Z,22.08
2023-04-09T06:06:35.973Z,21.20
2023-04-09T06:11:41.559Z,23.60
2023-04-09T06:16:47.265Z,24.02
2023-04-09T06:21:54.974Z,20.23
2023-04-09T06:27:00.157Z,22.38
2023-04-09T06:32:06.077Z,28.25
2023-04-09T06:37:13.816Z,23.60
2023-04-09T06:42:19.040Z,25.85
2023-04-09T06:47:24.171Z,24.80
2023-04-09T06:52:31.870Z,17.92
2023-04-09T06:57:38.102Z,16.63
2023-04-09T07:02:43.459Z,20.77
2023-04-09T07:07:51.308Z,16.08
2023-04-09T07:12:56.448Z,15.07
2023-04-09T07:18:01.623Z,14.13
2023-04-09T07:23:09.402Z,21.35
2023-04-09T07:28:14.726Z,13.52
2023-04-09T07:33:19.927Z,13.88
2023-04-09T07:38:27.797Z,12.93
2023-04-09T07:43:34.421Z,14.25
2023-04-09T07:48:39.631Z,14.18
2023-04-09T07:53:47.413Z,16.02
2023-04-09T07:58:52.929Z,14.68
2023-04-09T08:03:58.609Z,14.77
2023-04-09T08:09:06.547Z,16.35
2023-04-09T08:14:13.244Z,14.32
2023-04-09T08:19:19.449Z,14.25
2023-04-09T08:24:27.287Z,16.00
2023-04-09T08:29:32.698Z,12.95
2023-04-09T08:34:37.905Z,13.05
2023-04-09T08:39:45.727Z,13.50
2023-04-09T08:44:50.892Z,12.13
2023-04-09T08:49:56.486Z,12.90
2023-04-09T08:55:04.327Z,12.00
2023-04-09T09:00:13.466Z,13.60
2023-04-09T09:05:18.762Z,12.52
2023-04-09T09:10:40.499Z,11.63
2023-04-09T09:15:46.639Z,11.80
2023-04-09T09:20:51.731Z,10.48
2023-04-09T09:25:59.772Z,11.10
2023-04-09T09:31:12.184Z,12.40
2023-04-09T09:36:17.454Z,11.25
2023-04-09T09:41:26.228Z,12.38
2023-04-09T09:46:31.911Z,11.65
2023-04-09T09:51:38.776Z,12.07
2023-04-09T09:56:47.325Z,12.00
2023-04-09T10:01:55.110Z,11.77
2023-04-09T10:07:00.777Z,11.90
2023-04-09T10:12:10.662Z,12.40
2023-04-09T10:22:23.215Z,11.50
2023-04-09T10:27:31.564Z,13.68
2023-04-09T10:32:40.038Z,13.05
2023-04-09T10:37:52.595Z,12.38
2023-04-09T10:43:01.240Z,11.48
2023-04-09T10:48:06.469Z,12.55
2023-04-09T10:53:14.921Z,14.45
2023-04-09T10:58:22.989Z,11.82
2023-04-09T11:03:30.773Z,12.60
2023-04-09T11:08:38.301Z,12.52
2023-04-09T11:13:46.396Z,13.43
2023-04-09T11:18:51.774Z,12.77
2023-04-09T11:23:57.086Z,12.32
2023-04-09T11:29:08.502Z,13.70
2023-04-09T11:34:14.176Z,12.80
2023-04-09T11:39:19.289Z,13.35
2023-04-09T11:44:27.136Z,13.68
2023-04-09T11:49:32.357Z,13.57
2023-04-09T11:54:38.137Z,14.55
2023-04-09T11:59:45.895Z,15.00
2023-04-09T12:04:56.047Z,16.30
2023-04-09T12:10:07.177Z,14.73
2023-04-09T12:15:23.130Z,13.57
2023-04-09T12:20:36.507Z,15.70
2023-04-09T12:25:43.832Z,15.50
2023-04-09T12:30:51.606Z,14.93
2023-04-09T12:35:58.609Z,15.75
2023-04-09T12:41:03.993Z,15.73
2023-04-09T12:46:12.010Z,15.32
2023-04-09T12:51:17.365Z,15.07
2023-04-09T12:56:22.532Z,15.18
2023-04-09T13:01:30.293Z,15.80
2023-04-09T13:06:35.483Z,14.00
2023-04-09T13:11:41.013Z,14.93
2023-04-09T13:16:48.830Z,14.55
2023-04-09T13:21:53.929Z,17.75
2023-04-09T13:26:59.102Z,16.15
2023-04-09T13:32:07.788Z,13.70
2023-04-09T13:37:12.960Z,13.05
2023-04-09T13:42:18.141Z,13.27
2023-04-09T13:47:26.091Z,13.00
2023-04-09T13:52:31.767Z,14.57
2023-04-09T13:57:37.085Z,16.85
2023-04-09T14:02:44.955Z,19.92
2023-04-09T14:07:50.014Z,16.20
2023-04-09T14:12:55.306Z,26.33
2023-04-09T14:18:03.123Z,15.40
2023-04-09T14:23:08.436Z,16.65
2023-04-09T14:28:13.843Z,42.67
2023-04-09T14:33:21.675Z,15.73
2023-04-09T14:38:27.087Z,16.17
2023-04-09T14:43:32.206Z,14.25
2023-04-09T14:48:40.042Z,15.77
2023-04-09T14:53:45.198Z,14.27
2023-04-09T14:58:50.718Z,15.00
2023-04-09T15:03:58.806Z,16.20
2023-04-09T15:09:04.110Z,14.45
2023-04-09T15:14:09.359Z,13.73
2023-04-09T15:19:17.733Z,14.07
2023-04-09T15:24:22.903Z,15.48
2023-04-09T15:29:27.912Z,14.93
2023-04-09T15:34:35.811Z,14.98
2023-04-09T15:39:40.995Z,17.15
2023-04-09T15:44:46.161Z,18.00
2023-04-09T15:49:54.586Z,19.67
2023-04-09T15:54:59.686Z,14.90
2023-04-09T16:00:04.968Z,14.18
2023-04-09T16:05:13.272Z,15.68
2023-04-09T16:10:18.466Z,16.70
2023-04-09T16:15:23.647Z,14.60
2023-04-09T16:20:31.982Z,15.25
2023-04-09T16:25:38.090Z,14.90
2023-04-09T16:30:43.269Z,16.88
2023-04-09T16:35:51.116Z,16.77
2023-04-09T16:40:56.568Z,14.65
2023-04-09T16:46:02.073Z,16.70
2023-04-09T16:51:09.957Z,22.92
2023-04-09T16:56:15.320Z,21.25
2023-04-09T17:01:20.583Z,47.10
2023-04-09T17:06:28.471Z,52.67
2023-04-09T17:11:33.681Z,20.00
2023-04-09T17:16:39.002Z,18.60
2023-04-09T17:21:46.761Z,17.55
2023-04-09T17:26:51.947Z,19.30
2023-04-09T17:31:57.256Z,17.70
2023-04-09T17:37:04.961Z,17.30
2023-04-09T17:42:12.048Z,18.17
2023-04-09T17:47:17.361Z,48.22
2023-04-09T17:52:25.250Z,20.30
2023-04-09T17:57:30.391Z,22.63
2023-04-09T18:02:36.135Z,29.45
2023-04-09T18:07:44.084Z,24.58
2023-04-09T18:12:49.224Z,29.67
2023-04-09T18:17:54.752Z,27.70
2023-04-09T18:23:02.571Z,22.63
2023-04-09T18:28:08.221Z,22.58
2023-04-09T18:33:13.347Z,20.35
2023-04-09T18:38:21.438Z,20.38
2023-04-09T18:43:26.634Z,18.13
2023-04-09T18:48:32.142Z,19.50
2023-04-09T18:53:39.918Z,18.45
2023-04-09T18:58:45.152Z,18.45
2023-04-09T19:03:50.358Z,16.30
2023-04-09T19:08:59.312Z,17.77
2023-04-09T19:14:04.534Z,27.83
2023-04-09T19:19:09.624Z,20.17
2023-04-09T19:24:17.540Z,19.27
2023-04-09T19:29:22.675Z,20.23
2023-04-09T19:34:27.940Z,18.67
2023-04-09T19:39:35.811Z,18.52
2023-04-09T19:44:40.944Z,18.40
2023-04-09T19:49:46.000Z,20.00
2023-04-09T19:54:57.054Z,18.85
2023-04-09T20:00:02.199Z,20.05
2023-04-09T20:05:08.010Z,19.27
2023-04-09T20:10:16.106Z,19.67
2023-04-09T20:15:22.829Z,19.40
2023-04-09T20:20:27.945Z,20.58
2023-04-09T20:25:37.148Z,19.70
2023-04-09T20:30:43.101Z,20.10
2023-04-09T20:35:48.578Z,19.00
2023-04-09T20:40:56.518Z,19.40
2023-04-09T20:46:01.788Z,19.90
2023-04-09T20:51:11.743Z,20.23
2023-04-09T20:56:19.469Z,20.08
2023-04-09T21:01:27.493Z,22.45
2023-04-09T21:06:32.872Z,22.25
2023-04-09T21:11:40.577Z,22.98
2023-04-09T21:16:46.122Z,22.02
2023-04-09T21:21:51.740Z,22.33
2023-04-09T21:26:59.575Z,19.80
2023-04-09T21:32:04.674Z,22.08
2023-04-09T21:37:09.822Z,21.25
2023-04-09T21:42:17.456Z,20.65
2023-04-09T21:47:23.044Z,20.90
2023-04-09T21:52:28.521Z,21.27
2023-04-09T21:57:36.542Z,19.20
2023-04-09T22:02:42.015Z,19.38
2023-04-09T22:07:47.193Z,18.55
2023-04-09T22:12:55.722Z,20.52
2023-04-09T22:18:00.923Z,19.95
2023-04-09T22:23:06.145Z,21.95
2023-04-09T22:28:16.802Z,23.35
2023-04-09T22:33:21.906Z,20.20
2023-04-09T22:38:27.069Z,20.40
2023-04-09T22:43:34.799Z,20.75
2023-04-09T22:48:44.605Z,20.35
2023-04-09T22:53:50.935Z,19.92
2023-04-09T22:58:58.630Z,18.90
2023-04-09T23:04:03.909Z,18.45
2023-04-09T23:09:08.991Z,21.42
2023-04-09T23:14:16.985Z,21.33
2023-04-09T23:19:22.200Z,20.27
2023-04-09T23:24:27.420Z,20.23
2023-04-09T23:29:35.187Z,22.10
2023-04-09T23:34:41.876Z,20.33
2023-04-09T23:39:47.030Z,19.10
2023-04-09T23:44:54.805Z,21.00
2023-04-09T23:49:59.963Z,20.30
2023-04-09T23:55:05.295Z,21.13
